sensor_id;sensor_type;location;lat;lon;timestamp;temperature;humidity
35381;DHT22;21486;51.916;8.378;2023-12-20T00:00:39;7.10;99.90
35381;DHT22;21486;51.916;8.378;2023-12-20T00:03:05;7.10;99.90
35381;DHT22;21486;51.916;8.378;2023-12-20T00:05:30;7.10;99.90
35381;DHT22;21486;51.916;8.378;2023-12-20T00:08:00;7.00;99.90
35381;DHT22;21486;51.916;8.378;2023-12-20T00:10:26;7.00;99.90
35381;DHT22;21486;51.916;8.378;2023-12-20T00:12:51;7.00;99.90
35381;DHT22;21486;51.916;8.378;2023-12-20T00:15:16;7.00;99.90
35381;DHT22;21486;51.916;8.378;2023-12-20T00:17:42;7.00;99.90
35381;DHT22;21486;51.916;8.378;2023-12-20T00:20:07;7.00;99.90
35381;DHT22;21486;51.916;8.378;2023-12-20T00:22:33;7.00;99.90
35381;DHT22;21486;51.916;8.378;2023-12-20T00:24:58;6.90;99.90
35381;DHT22;21486;51.916;8.378;2023-12-20T00:27:24;6.90;99.90
35381;DHT22;21486;51.916;8.378;2023-12-20T00:29:49;6.80;99.90
35381;DHT22;21486;51.916;8.378;2023-12-20T00:32:15;6.80;99.90
35381;DHT22;21486;51.916;8.378;2023-12-20T00:34:41;6.80;99.90
35381;DHT22;21486;51.916;8.378;2023-12-20T00:37:06;6.80;99.90
35381;DHT22;21486;51.916;8.378;2023-12-20T00:39:32;6.70;99.90
35381;DHT22;21486;51.916;8.378;2023-12-20T00:41:58;6.70;99.90
35381;DHT22;21486;51.916;8.378;2023-12-20T00:44:23;6.60;99.90
35381;DHT22;21486;51.916;8.378;2023-12-20T00:46:49;6.60;99.90
35381;DHT22;21486;51.916;8.378;2023-12-20T00:49:14;6.60;99.90
35381;DHT22;21486;51.916;8.378;2023-12-20T00:51:40;6.60;99.90
35381;DHT22;21486;51.916;8.378;2023-12-20T00:54:05;6.50;99.90
35381;DHT22;21486;51.916;8.378;2023-12-20T00:56:30;6.50;99.90
35381;DHT22;21486;51.916;8.378;2023-12-20T00:58:56;6.50;99.90
35381;DHT22;21486;51.916;8.378;2023-12-20T01:01:21;6.40;99.90
35381;DHT22;21486;51.916;8.378;2023-12-20T01:03:47;6.40;99.90
35381;DHT22;21486;51.916;8.378;2023-12-20T01:06:12;6.30;99.90
35381;DHT22;21486;51.916;8.378;2023-12-20T01:08:38;6.40;99.90
35381;DHT22;21486;51.916;8.378;2023-12-20T01:11:04;6.40;99.90
35381;DHT22;21486;51.916;8.378;2023-12-20T01:13:30;6.30;99.90
35381;DHT22;21486;51.916;8.378;2023-12-20T01:15:56;6.40;99.90
35381;DHT22;21486;51.916;8.378;2023-12-20T01:18:21;6.40;99.90
35381;DHT22;21486;51.916;8.378;2023-12-20T01:20:47;6.30;99.90
35381;DHT22;21486;51.916;8.378;2023-12-20T01:23:12;6.30;99.90
35381;DHT22;21486;51.916;8.378;2023-12-20T01:25:38;6.30;99.90
35381;DHT22;21486;51.916;8.378;2023-12-20T01:28:04;6.30;99.90
35381;DHT22;21486;51.916;8.378;2023-12-20T01:33:02;6.40;99.90
35381;DHT22;21486;51.916;8.378;2023-12-20T01:35:27;6.40;99.90
35381;DHT22;21486;51.916;8.378;2023-12-20T01:37:53;6.30;99.90
35381;DHT22;21486;51.916;8.378;2023-12-20T01:40:22;6.40;99.90
35381;DHT22;21486;51.916;8.378;2023-12-20T01:42:47;6.40;99.90
35381;DHT22;21486;51.916;8.378;2023-12-20T01:45:13;6.40;99.90
35381;DHT22;21486;51.916;8.378;2023-12-20T01:47:38;6.40;99.90
35381;DHT22;21486;51.916;8.378;2023-12-20T01:50:05;6.30;99.90
35381;DHT22;21486;51.916;8.378;2023-12-20T01:52:33;6.30;99.90
35381;DHT22;21486;51.916;8.378;2023-12-20T01:54:59;6.20;99.90
35381;DHT22;21486;51.916;8.378;2023-12-20T01:57:28;6.20;99.90
35381;DHT22;21486;51.916;8.378;2023-12-20T01:59:54;6.20;99.90
35381;DHT22;21486;51.916;8.378;2023-12-20T02:02:20;6.20;99.90
35381;DHT22;21486;51.916;8.378;2023-12-20T02:04:45;6.20;99.90
35381;DHT22;21486;51.916;8.378;2023-12-20T02:07:13;6.10;99.90
35381;DHT22;21486;51.916;8.378;2023-12-20T02:09:39;6.10;99.90
35381;DHT22;21486;51.916;8.378;2023-12-20T02:12:05;6.10;99.90
35381;DHT22;21486;51.916;8.378;2023-12-20T02:14:31;6.10;99.90
35381;DHT22;21486;51.916;8.378;2023-12-20T02:16:56;6.10;99.90
35381;DHT22;21486;51.916;8.378;2023-12-20T02:19:22;6.20;99.90
35381;DHT22;21486;51.916;8.378;2023-12-20T02:21:47;6.00;99.90
35381;DHT22;21486;51.916;8.378;2023-12-20T02:24:13;6.00;99.90
35381;DHT22;21486;51.916;8.378;2023-12-20T02:26:38;6.10;99.90
35381;DHT22;21486;51.916;8.378;2023-12-20T02:29:04;6.10;99.90
35381;DHT22;21486;51.916;8.378;2023-12-20T02:31:29;6.00;99.90
35381;DHT22;21486;51.916;8.378;2023-12-20T02:33:55;6.00;99.90
35381;DHT22;21486;51.916;8.378;2023-12-20T02:36:20;5.90;99.90
35381;DHT22;21486;51.916;8.378;2023-12-20T02:38:46;6.00;99.90
35381;DHT22;21486;51.916;8.378;2023-12-20T02:41:12;5.90;99.90
35381;DHT22;21486;51.916;8.378;2023-12-20T02:43:37;5.90;99.90
35381;DHT22;21486;51.916;8.378;2023-12-20T02:46:03;5.90;99.90
35381;DHT22;21486;51.916;8.378;2023-12-20T02:48:28;5.90;99.90
35381;DHT22;21486;51.916;8.378;2023-12-20T02:50:54;5.80;99.90
35381;DHT22;21486;51.916;8.378;2023-12-20T02:53:20;5.70;99.90
35381;DHT22;21486;51.916;8.378;2023-12-20T02:55:45;5.70;99.90
35381;DHT22;21486;51.916;8.378;2023-12-20T02:58:11;5.60;99.90
35381;DHT22;21486;51.916;8.378;2023-12-20T03:00:37;5.70;99.90
35381;DHT22;21486;51.916;8.378;2023-12-20T03:03:02;5.80;99.90
35381;DHT22;21486;51.916;8.378;2023-12-20T03:05:28;5.70;99.90
35381;DHT22;21486;51.916;8.378;2023-12-20T03:07:53;5.80;99.90
35381;DHT22;21486;51.916;8.378;2023-12-20T03:10:19;5.70;99.90
35381;DHT22;21486;51.916;8.378;2023-12-20T03:12:44;5.70;99.90
35381;DHT22;21486;51.916;8.378;2023-12-20T03:15:10;5.70;99.90
35381;DHT22;21486;51.916;8.378;2023-12-20T03:17:36;5.70;99.90
35381;DHT22;21486;51.916;8.378;2023-12-20T03:20:02;5.70;99.90
35381;DHT22;21486;51.916;8.378;2023-12-20T03:22:27;5.80;99.90
35381;DHT22;21486;51.916;8.378;2023-12-20T03:24:53;5.80;99.90
35381;DHT22;21486;51.916;8.378;2023-12-20T03:27:18;5.80;99.90
35381;DHT22;21486;51.916;8.378;2023-12-20T03:29:44;5.90;99.90
35381;DHT22;21486;51.916;8.378;2023-12-20T03:32:09;5.90;99.90
35381;DHT22;21486;51.916;8.378;2023-12-20T03:34:35;5.90;99.90
35381;DHT22;21486;51.916;8.378;2023-12-20T03:37:00;6.00;99.90
35381;DHT22;21486;51.916;8.378;2023-12-20T03:39:26;5.90;99.90
35381;DHT22;21486;51.916;8.378;2023-12-20T03:41:51;5.90;99.90
35381;DHT22;21486;51.916;8.378;2023-12-20T03:44:17;5.90;99.90
35381;DHT22;21486;51.916;8.378;2023-12-20T03:46:42;6.00;99.90
35381;DHT22;21486;51.916;8.378;2023-12-20T03:49:08;5.90;99.90
35381;DHT22;21486;51.916;8.378;2023-12-20T03:51:33;5.90;99.90
35381;DHT22;21486;51.916;8.378;2023-12-20T03:53:59;5.90;99.90
35381;DHT22;21486;51.916;8.378;2023-12-20T03:56:24;5.90;99.90
35381;DHT22;21486;51.916;8.378;2023-12-20T03:58:50;5.90;99.90
35381;DHT22;21486;51.916;8.378;2023-12-20T04:01:15;5.80;99.90
35381;DHT22;21486;51.916;8.378;2023-12-20T04:03:41;5.80;99.90
35381;DHT22;21486;51.916;8.378;2023-12-20T04:06:06;5.90;99.90
35381;DHT22;21486;51.916;8.378;2023-12-20T04:08:32;5.80;99.90
35381;DHT22;21486;51.916;8.378;2023-12-20T04:10:57;5.90;99.90
35381;DHT22;21486;51.916;8.378;2023-12-20T04:13:23;5.80;99.90
35381;DHT22;21486;51.916;8.378;2023-12-20T04:15:48;5.80;99.90
35381;DHT22;21486;51.916;8.378;2023-12-20T04:18:16;5.70;99.90
35381;DHT22;21486;51.916;8.378;2023-12-20T04:20:41;5.70;99.90
35381;DHT22;21486;51.916;8.378;2023-12-20T04:23:07;5.70;99.90
35381;DHT22;21486;51.916;8.378;2023-12-20T04:25:32;5.70;99.90
35381;DHT22;21486;51.916;8.378;2023-12-20T04:27:58;5.70;99.90
35381;DHT22;21486;51.916;8.378;2023-12-20T04:30:23;5.80;99.90
35381;DHT22;21486;51.916;8.378;2023-12-20T04:32:49;5.80;99.90
35381;DHT22;21486;51.916;8.378;2023-12-20T04:35:14;5.90;99.90
35381;DHT22;21486;51.916;8.378;2023-12-20T04:37:40;5.80;99.90
35381;DHT22;21486;51.916;8.378;2023-12-20T04:40:06;5.90;99.90
35381;DHT22;21486;51.916;8.378;2023-12-20T04:42:32;5.80;99.90
35381;DHT22;21486;51.916;8.378;2023-12-20T04:44:58;5.90;99.90
35381;DHT22;21486;51.916;8.378;2023-12-20T04:47:23;5.90;99.90
35381;DHT22;21486;51.916;8.378;2023-12-20T04:49:49;5.90;99.90
35381;DHT22;21486;51.916;8.378;2023-12-20T04:52:14;5.90;99.90
35381;DHT22;21486;51.916;8.378;2023-12-20T04:54:40;5.90;99.90
35381;DHT22;21486;51.916;8.378;2023-12-20T04:57:05;5.90;99.90
35381;DHT22;21486;51.916;8.378;2023-12-20T04:59:31;6.00;99.90
35381;DHT22;21486;51.916;8.378;2023-12-20T05:01:56;5.90;99.90
35381;DHT22;21486;51.916;8.378;2023-12-20T05:04:23;5.90;99.90
35381;DHT22;21486;51.916;8.378;2023-12-20T05:06:48;5.90;99.90
35381;DHT22;21486;51.916;8.378;2023-12-20T05:09:15;5.90;99.90
35381;DHT22;21486;51.916;8.378;2023-12-20T05:11:41;5.90;99.90
35381;DHT22;21486;51.916;8.378;2023-12-20T05:14:06;5.90;99.90
35381;DHT22;21486;51.916;8.378;2023-12-20T05:16:32;5.90;99.90
35381;DHT22;21486;51.916;8.378;2023-12-20T05:18:58;5.90;99.90
35381;DHT22;21486;51.916;8.378;2023-12-20T05:21:26;5.90;99.90
35381;DHT22;21486;51.916;8.378;2023-12-20T05:23:51;5.90;99.90
35381;DHT22;21486;51.916;8.378;2023-12-20T05:26:17;5.90;99.90
35381;DHT22;21486;51.916;8.378;2023-12-20T05:28:42;5.90;99.90
35381;DHT22;21486;51.916;8.378;2023-12-20T05:31:08;6.00;99.90
35381;DHT22;21486;51.916;8.378;2023-12-20T05:33:34;5.90;99.90
35381;DHT22;21486;51.916;8.378;2023-12-20T05:35:59;5.90;99.90
35381;DHT22;21486;51.916;8.378;2023-12-20T05:38:25;5.90;99.90
35381;DHT22;21486;51.916;8.378;2023-12-20T05:40:51;6.00;99.90
35381;DHT22;21486;51.916;8.378;2023-12-20T05:43:16;6.00;99.90
35381;DHT22;21486;51.916;8.378;2023-12-20T05:45:42;6.00;99.90
35381;DHT22;21486;51.916;8.378;2023-12-20T05:48:07;6.00;99.90
35381;DHT22;21486;51.916;8.378;2023-12-20T05:50:33;6.10;99.90
35381;DHT22;21486;51.916;8.378;2023-12-20T05:53:00;6.00;99.90
35381;DHT22;21486;51.916;8.378;2023-12-20T05:55:25;6.00;99.90
35381;DHT22;21486;51.916;8.378;2023-12-20T05:57:51;6.00;99.90
35381;DHT22;21486;51.916;8.378;2023-12-20T06:00:17;5.90;99.90
35381;DHT22;21486;51.916;8.378;2023-12-20T06:02:43;5.90;99.90
35381;DHT22;21486;51.916;8.378;2023-12-20T06:05:08;5.90;99.90
35381;DHT22;21486;51.916;8.378;2023-12-20T06:07:34;5.90;99.90
35381;DHT22;21486;51.916;8.378;2023-12-20T06:09:59;5.90;99.90
35381;DHT22;21486;51.916;8.378;2023-12-20T06:12:25;5.90;99.90
35381;DHT22;21486;51.916;8.378;2023-12-20T06:14:52;5.90;99.90
35381;DHT22;21486;51.916;8.378;2023-12-20T06:17:17;5.90;99.90
35381;DHT22;21486;51.916;8.378;2023-12-20T06:19:43;5.80;99.90
35381;DHT22;21486;51.916;8.378;2023-12-20T06:22:10;5.80;99.90
35381;DHT22;21486;51.916;8.378;2023-12-20T06:24:36;5.80;99.90
35381;DHT22;21486;51.916;8.378;2023-12-20T06:27:01;5.80;99.90
35381;DHT22;21486;51.916;8.378;2023-12-20T06:29:28;5.90;99.90
35381;DHT22;21486;51.916;8.378;2023-12-20T06:31:53;5.90;99.90
35381;DHT22;21486;51.916;8.378;2023-12-20T06:34:19;5.80;99.90
35381;DHT22;21486;51.916;8.378;2023-12-20T06:36:44;5.90;99.90
35381;DHT22;21486;51.916;8.378;2023-12-20T06:39:10;5.80;99.90
35381;DHT22;21486;51.916;8.378;2023-12-20T06:41:38;5.80;99.90
35381;DHT22;21486;51.916;8.378;2023-12-20T06:44:03;5.90;99.90
35381;DHT22;21486;51.916;8.378;2023-12-20T06:46:29;5.90;99.90
35381;DHT22;21486;51.916;8.378;2023-12-20T06:48:54;5.90;99.90
35381;DHT22;21486;51.916;8.378;2023-12-20T06:51:20;5.90;99.90
35381;DHT22;21486;51.916;8.378;2023-12-20T06:53:45;5.90;99.90
35381;DHT22;21486;51.916;8.378;2023-12-20T06:56:11;5.90;99.90
35381;DHT22;21486;51.916;8.378;2023-12-20T06:58:37;5.90;99.90
35381;DHT22;21486;51.916;8.378;2023-12-20T07:01:03;5.90;99.90
35381;DHT22;21486;51.916;8.378;2023-12-20T07:03:29;5.90;99.90
35381;DHT22;21486;51.916;8.378;2023-12-20T07:05:55;6.00;99.90
35381;DHT22;21486;51.916;8.378;2023-12-20T07:08:20;6.00;99.90
35381;DHT22;21486;51.916;8.378;2023-12-20T07:10:46;6.00;99.90
35381;DHT22;21486;51.916;8.378;2023-12-20T07:13:12;5.90;99.90
35381;DHT22;21486;51.916;8.378;2023-12-20T07:15:37;6.00;99.90
35381;DHT22;21486;51.916;8.378;2023-12-20T07:18:03;6.00;99.90
35381;DHT22;21486;51.916;8.378;2023-12-20T07:20:30;6.00;99.90
35381;DHT22;21486;51.916;8.378;2023-12-20T07:22:55;6.00;99.90
35381;DHT22;21486;51.916;8.378;2023-12-20T07:25:21;6.00;99.90
35381;DHT22;21486;51.916;8.378;2023-12-20T07:27:46;6.00;99.90
35381;DHT22;21486;51.916;8.378;2023-12-20T07:30:12;6.00;99.90
35381;DHT22;21486;51.916;8.378;2023-12-20T07:32:37;5.90;99.90
35381;DHT22;21486;51.916;8.378;2023-12-20T07:35:03;6.00;99.90
35381;DHT22;21486;51.916;8.378;2023-12-20T07:37:29;6.00;99.90
35381;DHT22;21486;51.916;8.378;2023-12-20T07:39:54;6.00;99.90
35381;DHT22;21486;51.916;8.378;2023-12-20T07:42:20;6.00;99.90
35381;DHT22;21486;51.916;8.378;2023-12-20T07:44:47;6.10;99.90
35381;DHT22;21486;51.916;8.378;2023-12-20T07:47:12;6.10;99.90
35381;DHT22;21486;51.916;8.378;2023-12-20T07:49:40;6.10;99.90
35381;DHT22;21486;51.916;8.378;2023-12-20T07:52:06;6.10;99.90
35381;DHT22;21486;51.916;8.378;2023-12-20T07:54:33;6.10;99.90
35381;DHT22;21486;51.916;8.378;2023-12-20T07:56:59;6.10;99.90
35381;DHT22;21486;51.916;8.378;2023-12-20T07:59:24;6.10;99.90
35381;DHT22;21486;51.916;8.378;2023-12-20T08:01:50;6.10;99.90
35381;DHT22;21486;51.916;8.378;2023-12-20T08:04:15;6.20;99.90
35381;DHT22;21486;51.916;8.378;2023-12-20T08:06:41;6.30;99.90
35381;DHT22;21486;51.916;8.378;2023-12-20T08:09:06;6.20;99.90
35381;DHT22;21486;51.916;8.378;2023-12-20T08:11:32;6.20;99.90
35381;DHT22;21486;51.916;8.378;2023-12-20T08:13:57;6.20;99.90
35381;DHT22;21486;51.916;8.378;2023-12-20T08:16:23;6.20;99.90
35381;DHT22;21486;51.916;8.378;2023-12-20T08:18:50;6.20;99.90
35381;DHT22;21486;51.916;8.378;2023-12-20T08:21:15;6.20;99.90
35381;DHT22;21486;51.916;8.378;2023-12-20T08:23:41;6.20;99.90
35381;DHT22;21486;51.916;8.378;2023-12-20T08:26:07;6.20;99.90
35381;DHT22;21486;51.916;8.378;2023-12-20T08:28:33;6.30;99.90
35381;DHT22;21486;51.916;8.378;2023-12-20T08:30:59;6.20;99.90
35381;DHT22;21486;51.916;8.378;2023-12-20T08:33:24;6.20;99.90
35381;DHT22;21486;51.916;8.378;2023-12-20T08:35:50;6.20;99.90
35381;DHT22;21486;51.916;8.378;2023-12-20T08:38:15;6.20;99.90
35381;DHT22;21486;51.916;8.378;2023-12-20T08:40:42;6.30;99.90
35381;DHT22;21486;51.916;8.378;2023-12-20T08:43:07;6.30;99.90
35381;DHT22;21486;51.916;8.378;2023-12-20T08:45:33;6.30;99.90
35381;DHT22;21486;51.916;8.378;2023-12-20T08:47:58;6.30;99.90
35381;DHT22;21486;51.916;8.378;2023-12-20T08:50:25;6.30;99.90
35381;DHT22;21486;51.916;8.378;2023-12-20T08:52:50;6.30;99.90
35381;DHT22;21486;51.916;8.378;2023-12-20T08:55:16;6.30;99.90
35381;DHT22;21486;51.916;8.378;2023-12-20T08:57:43;6.30;99.90
35381;DHT22;21486;51.916;8.378;2023-12-20T09:00:09;6.30;99.90
35381;DHT22;21486;51.916;8.378;2023-12-20T09:02:35;6.40;99.90
35381;DHT22;21486;51.916;8.378;2023-12-20T09:05:02;6.40;99.90
35381;DHT22;21486;51.916;8.378;2023-12-20T09:07:27;6.40;99.90
35381;DHT22;21486;51.916;8.378;2023-12-20T09:09:55;6.40;99.90
35381;DHT22;21486;51.916;8.378;2023-12-20T09:12:21;6.50;99.90
35381;DHT22;21486;51.916;8.378;2023-12-20T09:14:48;6.40;99.90
35381;DHT22;21486;51.916;8.378;2023-12-20T09:17:13;6.40;99.90
35381;DHT22;21486;51.916;8.378;2023-12-20T09:19:39;6.40;99.90
35381;DHT22;21486;51.916;8.378;2023-12-20T09:22:05;6.30;99.90
35381;DHT22;21486;51.916;8.378;2023-12-20T09:24:31;6.30;99.90
35381;DHT22;21486;51.916;8.378;2023-12-20T09:26:56;6.30;99.90
35381;DHT22;21486;51.916;8.378;2023-12-20T09:29:22;6.30;99.90
35381;DHT22;21486;51.916;8.378;2023-12-20T09:31:48;6.30;99.90
35381;DHT22;21486;51.916;8.378;2023-12-20T09:34:15;6.30;99.90
35381;DHT22;21486;51.916;8.378;2023-12-20T09:36:41;6.40;99.90
35381;DHT22;21486;51.916;8.378;2023-12-20T09:39:16;6.50;99.90
35381;DHT22;21486;51.916;8.378;2023-12-20T09:41:45;6.50;99.90
35381;DHT22;21486;51.916;8.378;2023-12-20T09:44:16;6.50;99.90
35381;DHT22;21486;51.916;8.378;2023-12-20T09:46:44;6.50;99.90
35381;DHT22;21486;51.916;8.378;2023-12-20T09:49:11;6.60;99.90
35381;DHT22;21486;51.916;8.378;2023-12-20T09:51:38;6.50;99.90
35381;DHT22;21486;51.916;8.378;2023-12-20T09:54:04;6.50;99.90
35381;DHT22;21486;51.916;8.378;2023-12-20T09:56:30;6.40;99.90
35381;DHT22;21486;51.916;8.378;2023-12-20T09:58:56;6.40;99.90
35381;DHT22;21486;51.916;8.378;2023-12-20T10:01:23;6.40;99.90
35381;DHT22;21486;51.916;8.378;2023-12-20T10:03:50;6.40;99.90
35381;DHT22;21486;51.916;8.378;2023-12-20T10:06:17;6.40;99.90
35381;DHT22;21486;51.916;8.378;2023-12-20T10:08:42;6.30;99.90
35381;DHT22;21486;51.916;8.378;2023-12-20T10:11:09;6.40;99.90
35381;DHT22;21486;51.916;8.378;2023-12-20T10:13:34;6.40;99.90
35381;DHT22;21486;51.916;8.378;2023-12-20T10:16:04;6.40;99.90
35381;DHT22;21486;51.916;8.378;2023-12-20T10:18:31;6.50;99.90
35381;DHT22;21486;51.916;8.378;2023-12-20T10:20:57;6.50;99.90
35381;DHT22;21486;51.916;8.378;2023-12-20T10:23:23;6.50;99.90
35381;DHT22;21486;51.916;8.378;2023-12-20T10:26:00;6.60;99.90
35381;DHT22;21486;51.916;8.378;2023-12-20T10:28:26;6.50;99.90
35381;DHT22;21486;51.916;8.378;2023-12-20T10:30:55;6.50;99.90
35381;DHT22;21486;51.916;8.378;2023-12-20T10:33:27;6.60;99.90
35381;DHT22;21486;51.916;8.378;2023-12-20T10:35:57;6.50;99.90
35381;DHT22;21486;51.916;8.378;2023-12-20T10:38:23;6.60;99.90
35381;DHT22;21486;51.916;8.378;2023-12-20T10:40:49;6.50;99.90
35381;DHT22;21486;51.916;8.378;2023-12-20T10:43:19;6.60;99.90
35381;DHT22;21486;51.916;8.378;2023-12-20T10:45:45;6.60;99.90
35381;DHT22;21486;51.916;8.378;2023-12-20T10:48:11;6.70;99.90
35381;DHT22;21486;51.916;8.378;2023-12-20T10:50:41;6.60;99.90
35381;DHT22;21486;51.916;8.378;2023-12-20T10:53:07;6.70;99.90
35381;DHT22;21486;51.916;8.378;2023-12-20T10:55:33;6.70;99.90
35381;DHT22;21486;51.916;8.378;2023-12-20T10:58:07;6.70;99.90
35381;DHT22;21486;51.916;8.378;2023-12-20T11:00:35;6.60;99.90
35381;DHT22;21486;51.916;8.378;2023-12-20T11:03:03;6.60;99.90
35381;DHT22;21486;51.916;8.378;2023-12-20T11:05:49;6.60;99.90
35381;DHT22;21486;51.916;8.378;2023-12-20T11:08:33;6.60;99.90
35381;DHT22;21486;51.916;8.378;2023-12-20T11:11:09;6.60;99.90
35381;DHT22;21486;51.916;8.378;2023-12-20T11:14:06;6.70;99.90
35381;DHT22;21486;51.916;8.378;2023-12-20T11:16:37;6.70;99.90
35381;DHT22;21486;51.916;8.378;2023-12-20T11:19:06;6.70;99.90
35381;DHT22;21486;51.916;8.378;2023-12-20T11:21:32;6.80;99.90
35381;DHT22;21486;51.916;8.378;2023-12-20T11:23:57;6.80;99.90
35381;DHT22;21486;51.916;8.378;2023-12-20T11:26:28;6.80;99.90
35381;DHT22;21486;51.916;8.378;2023-12-20T11:28:54;6.90;99.90
35381;DHT22;21486;51.916;8.378;2023-12-20T11:31:20;6.90;99.90
35381;DHT22;21486;51.916;8.378;2023-12-20T11:33:45;6.90;99.90
35381;DHT22;21486;51.916;8.378;2023-12-20T11:36:15;7.00;99.90
35381;DHT22;21486;51.916;8.378;2023-12-20T11:39:09;7.00;99.90
35381;DHT22;21486;51.916;8.378;2023-12-20T11:41:36;7.00;99.90
35381;DHT22;21486;51.916;8.378;2023-12-20T11:44:02;7.20;99.90
35381;DHT22;21486;51.916;8.378;2023-12-20T11:46:31;7.20;99.90
35381;DHT22;21486;51.916;8.378;2023-12-20T11:48:56;7.10;99.90
35381;DHT22;21486;51.916;8.378;2023-12-20T11:51:22;7.10;99.90
35381;DHT22;21486;51.916;8.378;2023-12-20T11:53:51;7.20;99.90
35381;DHT22;21486;51.916;8.378;2023-12-20T11:56:18;7.30;99.90
35381;DHT22;21486;51.916;8.378;2023-12-20T11:58:44;7.50;99.90
35381;DHT22;21486;51.916;8.378;2023-12-20T12:01:10;7.60;99.90
35381;DHT22;21486;51.916;8.378;2023-12-20T12:03:36;7.60;99.90
35381;DHT22;21486;51.916;8.378;2023-12-20T12:06:02;7.50;99.90
35381;DHT22;21486;51.916;8.378;2023-12-20T12:08:29;7.40;99.90
35381;DHT22;21486;51.916;8.378;2023-12-20T12:10:55;7.40;99.90
35381;DHT22;21486;51.916;8.378;2023-12-20T12:13:21;7.30;99.90
35381;DHT22;21486;51.916;8.378;2023-12-20T12:15:48;7.30;99.90
35381;DHT22;21486;51.916;8.378;2023-12-20T12:18:17;7.40;99.90
35381;DHT22;21486;51.916;8.378;2023-12-20T12:20:42;7.40;99.90
35381;DHT22;21486;51.916;8.378;2023-12-20T12:23:08;7.30;99.90
35381;DHT22;21486;51.916;8.378;2023-12-20T12:25:36;7.30;99.90
35381;DHT22;21486;51.916;8.378;2023-12-20T12:28:02;7.30;99.90
35381;DHT22;21486;51.916;8.378;2023-12-20T12:30:28;7.20;99.90
35381;DHT22;21486;51.916;8.378;2023-12-20T12:32:56;7.30;99.90
35381;DHT22;21486;51.916;8.378;2023-12-20T12:35:22;7.30;99.90
35381;DHT22;21486;51.916;8.378;2023-12-20T12:37:47;7.30;99.90
35381;DHT22;21486;51.916;8.378;2023-12-20T12:40:13;7.30;99.90
35381;DHT22;21486;51.916;8.378;2023-12-20T12:42:40;7.30;99.90
35381;DHT22;21486;51.916;8.378;2023-12-20T12:45:06;7.30;99.90
35381;DHT22;21486;51.916;8.378;2023-12-20T12:47:31;7.30;99.90
35381;DHT22;21486;51.916;8.378;2023-12-20T12:49:57;7.40;99.90
35381;DHT22;21486;51.916;8.378;2023-12-20T12:52:23;7.40;99.90
35381;DHT22;21486;51.916;8.378;2023-12-20T12:54:49;7.40;99.90
35381;DHT22;21486;51.916;8.378;2023-12-20T12:57:15;7.40;99.90
35381;DHT22;21486;51.916;8.378;2023-12-20T12:59:44;7.40;99.90
35381;DHT22;21486;51.916;8.378;2023-12-20T13:02:12;7.50;99.90
35381;DHT22;21486;51.916;8.378;2023-12-20T13:04:39;7.60;99.90
35381;DHT22;21486;51.916;8.378;2023-12-20T13:07:04;7.60;99.90
35381;DHT22;21486;51.916;8.378;2023-12-20T13:09:30;7.60;99.90
35381;DHT22;21486;51.916;8.378;2023-12-20T13:11:56;7.60;99.90
35381;DHT22;21486;51.916;8.378;2023-12-20T13:14:22;7.70;99.90
35381;DHT22;21486;51.916;8.378;2023-12-20T13:16:47;7.80;99.90
35381;DHT22;21486;51.916;8.378;2023-12-20T13:19:13;7.80;99.90
35381;DHT22;21486;51.916;8.378;2023-12-20T13:21:38;7.80;99.90
35381;DHT22;21486;51.916;8.378;2023-12-20T13:24:05;7.80;99.90
35381;DHT22;21486;51.916;8.378;2023-12-20T13:26:30;7.70;99.90
35381;DHT22;21486;51.916;8.378;2023-12-20T13:28:56;7.70;99.90
35381;DHT22;21486;51.916;8.378;2023-12-20T13:31:22;7.40;99.90
35381;DHT22;21486;51.916;8.378;2023-12-20T13:33:47;6.90;99.90
35381;DHT22;21486;51.916;8.378;2023-12-20T13:36:13;6.50;99.90
35381;DHT22;21486;51.916;8.378;2023-12-20T13:38:38;6.20;99.90
35381;DHT22;21486;51.916;8.378;2023-12-20T13:41:04;6.00;99.90
35381;DHT22;21486;51.916;8.378;2023-12-20T13:43:31;5.90;99.90
35381;DHT22;21486;51.916;8.378;2023-12-20T13:45:58;5.80;99.90
35381;DHT22;21486;51.916;8.378;2023-12-20T13:48:23;5.70;99.90
35381;DHT22;21486;51.916;8.378;2023-12-20T13:50:49;5.60;99.90
35381;DHT22;21486;51.916;8.378;2023-12-20T13:53:14;5.60;99.90
35381;DHT22;21486;51.916;8.378;2023-12-20T13:55:40;5.60;99.90
35381;DHT22;21486;51.916;8.378;2023-12-20T13:58:05;5.50;99.90
35381;DHT22;21486;51.916;8.378;2023-12-20T14:00:31;5.50;99.90
35381;DHT22;21486;51.916;8.378;2023-12-20T14:02:56;5.50;99.90
35381;DHT22;21486;51.916;8.378;2023-12-20T14:05:22;5.60;99.90
35381;DHT22;21486;51.916;8.378;2023-12-20T14:07:48;5.60;99.90
35381;DHT22;21486;51.916;8.378;2023-12-20T14:10:14;5.50;99.90
35381;DHT22;21486;51.916;8.378;2023-12-20T14:12:39;5.50;99.90
35381;DHT22;21486;51.916;8.378;2023-12-20T14:15:05;5.50;99.90
35381;DHT22;21486;51.916;8.378;2023-12-20T14:17:39;5.50;99.90
35381;DHT22;21486;51.916;8.378;2023-12-20T14:20:05;5.60;99.90
35381;DHT22;21486;51.916;8.378;2023-12-20T14:22:31;5.60;99.90
35381;DHT22;21486;51.916;8.378;2023-12-20T14:24:57;5.60;99.90
35381;DHT22;21486;51.916;8.378;2023-12-20T14:27:22;5.60;99.90
35381;DHT22;21486;51.916;8.378;2023-12-20T14:29:49;5.60;99.90
35381;DHT22;21486;51.916;8.378;2023-12-20T14:32:15;5.70;99.90
35381;DHT22;21486;51.916;8.378;2023-12-20T14:34:41;5.70;99.90
35381;DHT22;21486;51.916;8.378;2023-12-20T14:37:06;5.70;99.90
35381;DHT22;21486;51.916;8.378;2023-12-20T14:39:32;5.60;99.90
35381;DHT22;21486;51.916;8.378;2023-12-20T14:41:57;5.60;99.90
35381;DHT22;21486;51.916;8.378;2023-12-20T14:44:23;5.60;99.90
35381;DHT22;21486;51.916;8.378;2023-12-20T14:46:48;5.60;99.90
35381;DHT22;21486;51.916;8.378;2023-12-20T14:49:14;5.50;99.90
35381;DHT22;21486;51.916;8.378;2023-12-20T14:51:39;5.50;99.90
35381;DHT22;21486;51.916;8.378;2023-12-20T14:54:05;5.50;99.90
35381;DHT22;21486;51.916;8.378;2023-12-20T14:56:34;5.50;99.90
35381;DHT22;21486;51.916;8.378;2023-12-20T14:59:00;5.50;99.90
35381;DHT22;21486;51.916;8.378;2023-12-20T15:01:25;5.50;99.90
35381;DHT22;21486;51.916;8.378;2023-12-20T15:03:51;5.50;99.90
35381;DHT22;21486;51.916;8.378;2023-12-20T15:06:17;5.50;99.90
35381;DHT22;21486;51.916;8.378;2023-12-20T15:08:45;5.50;99.90
35381;DHT22;21486;51.916;8.378;2023-12-20T15:11:11;5.50;99.90
35381;DHT22;21486;51.916;8.378;2023-12-20T15:13:36;5.60;99.90
35381;DHT22;21486;51.916;8.378;2023-12-20T15:16:02;5.50;99.90
35381;DHT22;21486;51.916;8.378;2023-12-20T15:18:27;5.60;99.90
35381;DHT22;21486;51.916;8.378;2023-12-20T15:20:53;5.70;99.90
35381;DHT22;21486;51.916;8.378;2023-12-20T15:23:18;5.70;99.90
35381;DHT22;21486;51.916;8.378;2023-12-20T15:25:44;5.70;99.90
35381;DHT22;21486;51.916;8.378;2023-12-20T15:28:09;5.80;99.90
35381;DHT22;21486;51.916;8.378;2023-12-20T15:30:36;5.70;99.90
35381;DHT22;21486;51.916;8.378;2023-12-20T15:33:01;5.70;99.90
35381;DHT22;21486;51.916;8.378;2023-12-20T15:35:28;5.70;99.90
35381;DHT22;21486;51.916;8.378;2023-12-20T15:37:53;5.70;99.90
35381;DHT22;21486;51.916;8.378;2023-12-20T15:40:19;5.70;99.90